Pagina principale
METAR-TAF:

METAR-TAF

Aeroporti :

Aeroporto di Treviso-Sant'Angelo

Treviso, Italia

latitudine: 45-39N, longitudine: 012-11E, altezza: 18 m

Osservazione

Il bollettino è stato emesso 22 minuti fa, alle 23:20 UTC
Vento 3 kt da nord-est
Temperature 10°C
Umidità 76%
Pressione 1016 hPa
Visibilità 10 km o più

METAR: LIPH 242320Z AUTO 05003KT 9999 NCD 10/06 Q1016

Ora: 00:42 (23:42 UTC)

Previsione

Il bollettino è stato emesso 42 minuti fa, alle 23:00 UTC
Previsione valida dal 25 alle 00 UTC al 25 alle 24 UTC
Vento 5 kt da direzioni variabili
Visibilità 10 km o più
nessuna nube inferiore a 1500 m e nessun cumulonembo
Evoluzione graduale
dal 25 alle 15 UTC al 25 alle 17 UTC
Vento 14 kt da est/nord-est
Temporaneamente
dal 25 alle 16 UTC al 25 alle 18 UTC
rovesci di pioggia

TAF: LIPH 242300Z 2500/2524 VRB05KT CAVOK BECMG 2515/2517 06014KT TEMPO 2516/2518 SHRA

Osservazioni e previsioni meteorologiche di più di 4000 aeroporti (messaggi METAR e TAF).

Le stazioni disponibili sono rappresentate dai dischi gialli e rossi sulla carta.

Puntare il mouse per vedere il nome della stazione.

Clicca sopra per visualizzare le osservazioni e previsioni meteorologiche.

Per cambiare la mappa : fare clic sui pulsanti verdi con una croce nera per ingrandire, il pulsante verde con un trattino per diminuire, o sulla freccia verde per le mappe adiacenti.


METAR-TAF: